sensor_id;sensor_type;location;lat;lon;timestamp;temperature;humidity
13606;DHT22;6874;52.084;5.090;2023-04-25T00:01:03;8.00;99.90
13606;DHT22;6874;52.084;5.090;2023-04-25T00:03:31;8.00;99.90
13606;DHT22;6874;52.084;5.090;2023-04-25T00:05:58;8.00;99.90
13606;DHT22;6874;52.084;5.090;2023-04-25T00:08:27;8.00;99.90
13606;DHT22;6874;52.084;5.090;2023-04-25T00:10:52;8.00;99.90
13606;DHT22;6874;52.084;5.090;2023-04-25T00:13:18;7.90;99.90
13606;DHT22;6874;52.084;5.090;2023-04-25T00:15:44;7.90;99.90
13606;DHT22;6874;52.084;5.090;2023-04-25T00:18:11;7.90;99.90
13606;DHT22;6874;52.084;5.090;2023-04-25T00:20:37;7.90;99.90
13606;DHT22;6874;52.084;5.090;2023-04-25T00:23:02;7.90;99.90
13606;DHT22;6874;52.084;5.090;2023-04-25T00:25:28;7.80;99.90
13606;DHT22;6874;52.084;5.090;2023-04-25T00:27:54;7.90;99.90
13606;DHT22;6874;52.084;5.090;2023-04-25T00:30:20;7.80;99.90
13606;DHT22;6874;52.084;5.090;2023-04-25T00:32:45;7.80;99.90
13606;DHT22;6874;52.084;5.090;2023-04-25T00:35:11;7.80;99.90
13606;DHT22;6874;52.084;5.090;2023-04-25T00:37:36;7.80;99.90
13606;DHT22;6874;52.084;5.090;2023-04-25T00:40:05;7.80;99.90
13606;DHT22;6874;52.084;5.090;2023-04-25T00:42:31;7.80;99.90
13606;DHT22;6874;52.084;5.090;2023-04-25T00:44:59;7.70;99.90
13606;DHT22;6874;52.084;5.090;2023-04-25T00:47:25;7.70;99.90
13606;DHT22;6874;52.084;5.090;2023-04-25T00:49:50;7.70;99.90
13606;DHT22;6874;52.084;5.090;2023-04-25T00:52:16;7.70;99.90
13606;DHT22;6874;52.084;5.090;2023-04-25T00:54:42;7.70;99.90
13606;DHT22;6874;52.084;5.090;2023-04-25T00:57:08;7.60;99.90
13606;DHT22;6874;52.084;5.090;2023-04-25T00:59:33;7.60;99.90
13606;DHT22;6874;52.084;5.090;2023-04-25T01:01:59;7.60;99.90
13606;DHT22;6874;52.084;5.090;2023-04-25T01:04:27;7.60;99.90
13606;DHT22;6874;52.084;5.090;2023-04-25T01:06:52;7.60;99.90
13606;DHT22;6874;52.084;5.090;2023-04-25T01:09:19;7.50;99.90
13606;DHT22;6874;52.084;5.090;2023-04-25T01:11:45;7.50;99.90
13606;DHT22;6874;52.084;5.090;2023-04-25T01:14:11;7.50;99.90
13606;DHT22;6874;52.084;5.090;2023-04-25T01:16:36;7.40;99.90
13606;DHT22;6874;52.084;5.090;2023-04-25T01:19:07;7.50;99.90
13606;DHT22;6874;52.084;5.090;2023-04-25T01:21:34;7.40;99.90
13606;DHT22;6874;52.084;5.090;2023-04-25T01:24:00;7.40;99.90
13606;DHT22;6874;52.084;5.090;2023-04-25T01:26:26;7.40;99.90
13606;DHT22;6874;52.084;5.090;2023-04-25T01:28:52;7.40;99.90
13606;DHT22;6874;52.084;5.090;2023-04-25T01:31:18;7.30;99.90
13606;DHT22;6874;52.084;5.090;2023-04-25T01:33:44;7.30;99.90
13606;DHT22;6874;52.084;5.090;2023-04-25T01:36:10;7.30;99.90
13606;DHT22;6874;52.084;5.090;2023-04-25T01:38:36;7.30;99.90
13606;DHT22;6874;52.084;5.090;2023-04-25T01:41:02;7.30;99.90
13606;DHT22;6874;52.084;5.090;2023-04-25T01:43:28;7.20;99.90
13606;DHT22;6874;52.084;5.090;2023-04-25T01:45:54;7.20;99.90
13606;DHT22;6874;52.084;5.090;2023-04-25T01:48:20;7.20;99.90
13606;DHT22;6874;52.084;5.090;2023-04-25T01:50:45;7.20;99.90
13606;DHT22;6874;52.084;5.090;2023-04-25T01:53:13;7.10;99.90
13606;DHT22;6874;52.084;5.090;2023-04-25T01:55:38;7.10;99.90
13606;DHT22;6874;52.084;5.090;2023-04-25T01:58:04;7.10;99.90
13606;DHT22;6874;52.084;5.090;2023-04-25T02:00:38;7.10;99.90
13606;DHT22;6874;52.084;5.090;2023-04-25T02:03:05;7.00;99.90
13606;DHT22;6874;52.084;5.090;2023-04-25T02:05:37;7.00;99.90
13606;DHT22;6874;52.084;5.090;2023-04-25T02:08:05;7.00;99.90
13606;DHT22;6874;52.084;5.090;2023-04-25T02:10:31;7.00;99.90
13606;DHT22;6874;52.084;5.090;2023-04-25T02:12:57;7.00;99.90
13606;DHT22;6874;52.084;5.090;2023-04-25T02:15:23;6.90;99.90
13606;DHT22;6874;52.084;5.090;2023-04-25T02:17:48;6.90;99.90
13606;DHT22;6874;52.084;5.090;2023-04-25T02:20:14;6.90;99.90
13606;DHT22;6874;52.084;5.090;2023-04-25T02:22:41;6.90;99.90
13606;DHT22;6874;52.084;5.090;2023-04-25T02:25:08;6.80;99.90
13606;DHT22;6874;52.084;5.090;2023-04-25T02:27:34;6.80;99.90
13606;DHT22;6874;52.084;5.090;2023-04-25T02:30:00;6.80;99.90
13606;DHT22;6874;52.084;5.090;2023-04-25T02:32:26;6.80;99.90
13606;DHT22;6874;52.084;5.090;2023-04-25T02:34:52;6.80;99.90
13606;DHT22;6874;52.084;5.090;2023-04-25T02:37:17;6.80;99.90
13606;DHT22;6874;52.084;5.090;2023-04-25T02:39:43;6.80;99.90
13606;DHT22;6874;52.084;5.090;2023-04-25T02:42:08;6.80;99.90
13606;DHT22;6874;52.084;5.090;2023-04-25T02:44:34;6.70;99.90
13606;DHT22;6874;52.084;5.090;2023-04-25T02:47:00;6.70;99.90
13606;DHT22;6874;52.084;5.090;2023-04-25T02:49:25;6.70;99.90
13606;DHT22;6874;52.084;5.090;2023-04-25T02:51:51;6.70;99.90
13606;DHT22;6874;52.084;5.090;2023-04-25T02:54:16;6.70;99.90
13606;DHT22;6874;52.084;5.090;2023-04-25T02:56:42;6.60;99.90
13606;DHT22;6874;52.084;5.090;2023-04-25T02:59:07;6.60;99.90
13606;DHT22;6874;52.084;5.090;2023-04-25T03:01:33;6.60;99.90
13606;DHT22;6874;52.084;5.090;2023-04-25T03:03:58;6.60;99.90
13606;DHT22;6874;52.084;5.090;2023-04-25T03:06:24;6.60;99.90
13606;DHT22;6874;52.084;5.090;2023-04-25T03:08:49;6.60;99.90
13606;DHT22;6874;52.084;5.090;2023-04-25T03:11:15;6.60;99.90
13606;DHT22;6874;52.084;5.090;2023-04-25T03:13:41;6.60;99.90
13606;DHT22;6874;52.084;5.090;2023-04-25T03:16:06;6.60;99.90
13606;DHT22;6874;52.084;5.090;2023-04-25T03:18:32;6.60;99.90
13606;DHT22;6874;52.084;5.090;2023-04-25T03:20:57;6.60;99.90
13606;DHT22;6874;52.084;5.090;2023-04-25T03:23:23;6.60;99.90
13606;DHT22;6874;52.084;5.090;2023-04-25T03:25:48;6.60;99.90
13606;DHT22;6874;52.084;5.090;2023-04-25T03:28:14;6.60;99.90
13606;DHT22;6874;52.084;5.090;2023-04-25T03:30:40;6.50;99.90
13606;DHT22;6874;52.084;5.090;2023-04-25T03:33:05;6.50;99.90
13606;DHT22;6874;52.084;5.090;2023-04-25T03:35:31;6.50;99.90
13606;DHT22;6874;52.084;5.090;2023-04-25T03:37:56;6.50;99.90
13606;DHT22;6874;52.084;5.090;2023-04-25T03:40:22;6.50;99.90
13606;DHT22;6874;52.084;5.090;2023-04-25T03:42:48;6.50;99.90
13606;DHT22;6874;52.084;5.090;2023-04-25T03:45:13;6.50;99.90
13606;DHT22;6874;52.084;5.090;2023-04-25T03:47:39;6.50;99.90
13606;DHT22;6874;52.084;5.090;2023-04-25T03:50:05;6.50;99.90
13606;DHT22;6874;52.084;5.090;2023-04-25T03:52:30;6.50;99.90
13606;DHT22;6874;52.084;5.090;2023-04-25T03:54:56;6.50;99.90
13606;DHT22;6874;52.084;5.090;2023-04-25T03:57:21;6.50;99.90
13606;DHT22;6874;52.084;5.090;2023-04-25T03:59:47;6.50;99.90
13606;DHT22;6874;52.084;5.090;2023-04-25T04:02:12;6.40;99.90
13606;DHT22;6874;52.084;5.090;2023-04-25T04:04:38;6.40;99.90
13606;DHT22;6874;52.084;5.090;2023-04-25T04:07:04;6.40;99.90
13606;DHT22;6874;52.084;5.090;2023-04-25T04:09:29;6.40;99.90
13606;DHT22;6874;52.084;5.090;2023-04-25T04:11:55;6.40;99.90
13606;DHT22;6874;52.084;5.090;2023-04-25T04:14:20;6.40;99.90
13606;DHT22;6874;52.084;5.090;2023-04-25T04:16:46;6.40;99.90
13606;DHT22;6874;52.084;5.090;2023-04-25T04:19:11;6.40;99.90
13606;DHT22;6874;52.084;5.090;2023-04-25T04:21:37;6.30;99.90
13606;DHT22;6874;52.084;5.090;2023-04-25T04:24:03;6.40;99.90
13606;DHT22;6874;52.084;5.090;2023-04-25T04:26:28;6.40;99.90
13606;DHT22;6874;52.084;5.090;2023-04-25T04:28:54;6.40;99.90
13606;DHT22;6874;52.084;5.090;2023-04-25T04:31:21;6.30;99.90
13606;DHT22;6874;52.084;5.090;2023-04-25T04:33:47;6.30;99.90
13606;DHT22;6874;52.084;5.090;2023-04-25T04:36:12;6.30;99.90
13606;DHT22;6874;52.084;5.090;2023-04-25T04:38:38;6.30;99.90
13606;DHT22;6874;52.084;5.090;2023-04-25T04:41:05;6.30;99.90
13606;DHT22;6874;52.084;5.090;2023-04-25T04:43:31;6.30;99.90
13606;DHT22;6874;52.084;5.090;2023-04-25T04:46:00;6.30;99.90
13606;DHT22;6874;52.084;5.090;2023-04-25T04:48:25;6.30;99.90
13606;DHT22;6874;52.084;5.090;2023-04-25T04:50:51;6.30;99.90
13606;DHT22;6874;52.084;5.090;2023-04-25T04:53:17;6.20;99.90
13606;DHT22;6874;52.084;5.090;2023-04-25T04:55:42;6.20;99.90
13606;DHT22;6874;52.084;5.090;2023-04-25T04:58:08;6.20;99.90
13606;DHT22;6874;52.084;5.090;2023-04-25T05:00:34;6.20;99.90
13606;DHT22;6874;52.084;5.090;2023-04-25T05:02:59;6.20;99.90
13606;DHT22;6874;52.084;5.090;2023-04-25T05:05:26;6.20;99.90
13606;DHT22;6874;52.084;5.090;2023-04-25T05:07:51;6.30;99.90
13606;DHT22;6874;52.084;5.090;2023-04-25T05:10:18;6.20;99.90
13606;DHT22;6874;52.084;5.090;2023-04-25T05:12:44;6.20;99.90
13606;DHT22;6874;52.084;5.090;2023-04-25T05:15:10;6.20;99.90
13606;DHT22;6874;52.084;5.090;2023-04-25T05:17:36;6.20;99.90
13606;DHT22;6874;52.084;5.090;2023-04-25T05:20:01;6.20;99.90
13606;DHT22;6874;52.084;5.090;2023-04-25T05:22:27;6.20;99.90
13606;DHT22;6874;52.084;5.090;2023-04-25T05:24:52;6.20;99.90
13606;DHT22;6874;52.084;5.090;2023-04-25T05:27:18;6.20;99.90
13606;DHT22;6874;52.084;5.090;2023-04-25T05:29:44;6.20;99.90
13606;DHT22;6874;52.084;5.090;2023-04-25T05:32:10;6.20;99.90
13606;DHT22;6874;52.084;5.090;2023-04-25T05:34:36;6.20;99.90
13606;DHT22;6874;52.084;5.090;2023-04-25T05:37:02;6.30;99.90
13606;DHT22;6874;52.084;5.090;2023-04-25T05:39:28;6.30;99.90
13606;DHT22;6874;52.084;5.090;2023-04-25T05:41:53;6.30;99.90
13606;DHT22;6874;52.084;5.090;2023-04-25T05:44:19;6.30;99.90
13606;DHT22;6874;52.084;5.090;2023-04-25T05:46:45;6.30;99.90
13606;DHT22;6874;52.084;5.090;2023-04-25T05:49:10;6.30;99.90
13606;DHT22;6874;52.084;5.090;2023-04-25T05:51:36;6.30;99.90
13606;DHT22;6874;52.084;5.090;2023-04-25T05:54:01;6.30;99.90
13606;DHT22;6874;52.084;5.090;2023-04-25T05:56:27;6.40;99.90
13606;DHT22;6874;52.084;5.090;2023-04-25T05:58:53;6.30;99.90
13606;DHT22;6874;52.084;5.090;2023-04-25T06:01:18;6.30;99.90
13606;DHT22;6874;52.084;5.090;2023-04-25T06:03:44;6.40;99.90
13606;DHT22;6874;52.084;5.090;2023-04-25T06:06:11;6.40;99.90
13606;DHT22;6874;52.084;5.090;2023-04-25T06:08:36;6.40;99.90
13606;DHT22;6874;52.084;5.090;2023-04-25T06:11:03;6.40;99.90
13606;DHT22;6874;52.084;5.090;2023-04-25T06:13:28;6.40;99.90
13606;DHT22;6874;52.084;5.090;2023-04-25T06:15:54;6.40;99.90
13606;DHT22;6874;52.084;5.090;2023-04-25T06:18:19;6.40;99.90
13606;DHT22;6874;52.084;5.090;2023-04-25T06:20:45;6.50;99.90
13606;DHT22;6874;52.084;5.090;2023-04-25T06:23:11;6.50;99.90
13606;DHT22;6874;52.084;5.090;2023-04-25T06:25:36;6.50;99.90
13606;DHT22;6874;52.084;5.090;2023-04-25T06:28:02;6.50;99.90
13606;DHT22;6874;52.084;5.090;2023-04-25T06:30:27;6.50;99.90
13606;DHT22;6874;52.084;5.090;2023-04-25T06:32:53;6.50;99.90
13606;DHT22;6874;52.084;5.090;2023-04-25T06:35:19;6.50;99.90
13606;DHT22;6874;52.084;5.090;2023-04-25T06:37:45;6.60;99.90
13606;DHT22;6874;52.084;5.090;2023-04-25T06:40:10;6.60;99.90
13606;DHT22;6874;52.084;5.090;2023-04-25T06:42:37;6.60;99.90
13606;DHT22;6874;52.084;5.090;2023-04-25T06:45:03;6.60;99.90
13606;DHT22;6874;52.084;5.090;2023-04-25T06:47:29;6.60;99.90
13606;DHT22;6874;52.084;5.090;2023-04-25T06:49:55;6.60;99.90
13606;DHT22;6874;52.084;5.090;2023-04-25T06:52:21;6.60;99.90
13606;DHT22;6874;52.084;5.090;2023-04-25T06:54:46;6.70;99.90
13606;DHT22;6874;52.084;5.090;2023-04-25T06:57:12;6.70;99.90
13606;DHT22;6874;52.084;5.090;2023-04-25T06:59:41;6.80;99.90
13606;DHT22;6874;52.084;5.090;2023-04-25T07:02:06;6.80;99.90
13606;DHT22;6874;52.084;5.090;2023-04-25T07:04:32;6.90;99.90
13606;DHT22;6874;52.084;5.090;2023-04-25T07:06:57;6.90;99.90
13606;DHT22;6874;52.084;5.090;2023-04-25T07:09:23;6.90;99.90
13606;DHT22;6874;52.084;5.090;2023-04-25T07:11:49;7.00;99.90
13606;DHT22;6874;52.084;5.090;2023-04-25T07:14:14;7.00;99.90
13606;DHT22;6874;52.084;5.090;2023-04-25T07:16:40;7.10;99.90
13606;DHT22;6874;52.084;5.090;2023-04-25T07:19:06;7.10;99.90
13606;DHT22;6874;52.084;5.090;2023-04-25T07:21:31;7.10;99.90
13606;DHT22;6874;52.084;5.090;2023-04-25T07:23:58;7.20;99.90
13606;DHT22;6874;52.084;5.090;2023-04-25T07:26:23;7.20;99.90
13606;DHT22;6874;52.084;5.090;2023-04-25T07:28:49;7.20;99.90
13606;DHT22;6874;52.084;5.090;2023-04-25T07:31:17;7.20;99.90
13606;DHT22;6874;52.084;5.090;2023-04-25T07:33:46;7.20;99.90
13606;DHT22;6874;52.084;5.090;2023-04-25T07:36:12;7.20;99.90
13606;DHT22;6874;52.084;5.090;2023-04-25T07:38:49;7.30;99.90
13606;DHT22;6874;52.084;5.090;2023-04-25T07:41:14;7.20;99.90
13606;DHT22;6874;52.084;5.090;2023-04-25T07:43:40;7.30;99.90
13606;DHT22;6874;52.084;5.090;2023-04-25T07:46:05;7.30;99.90
13606;DHT22;6874;52.084;5.090;2023-04-25T07:48:31;7.30;99.90
13606;DHT22;6874;52.084;5.090;2023-04-25T07:50:57;7.30;99.90
13606;DHT22;6874;52.084;5.090;2023-04-25T07:53:22;7.30;99.90
13606;DHT22;6874;52.084;5.090;2023-04-25T07:55:48;7.30;99.90
13606;DHT22;6874;52.084;5.090;2023-04-25T07:58:13;7.30;99.90
13606;DHT22;6874;52.084;5.090;2023-04-25T08:00:40;7.30;99.90
13606;DHT22;6874;52.084;5.090;2023-04-25T08:03:06;7.40;99.90
13606;DHT22;6874;52.084;5.090;2023-04-25T08:05:32;7.40;99.90
13606;DHT22;6874;52.084;5.090;2023-04-25T08:07:58;7.40;99.90
13606;DHT22;6874;52.084;5.090;2023-04-25T08:10:24;7.40;99.90
13606;DHT22;6874;52.084;5.090;2023-04-25T08:12:50;7.50;99.90
13606;DHT22;6874;52.084;5.090;2023-04-25T08:15:15;7.50;99.90
13606;DHT22;6874;52.084;5.090;2023-04-25T08:17:41;7.50;99.90
13606;DHT22;6874;52.084;5.090;2023-04-25T08:20:07;7.50;99.90
13606;DHT22;6874;52.084;5.090;2023-04-25T08:22:32;7.60;99.90
13606;DHT22;6874;52.084;5.090;2023-04-25T08:24:59;7.60;99.90
13606;DHT22;6874;52.084;5.090;2023-04-25T08:27:24;7.60;99.90
13606;DHT22;6874;52.084;5.090;2023-04-25T08:29:50;7.60;99.90
13606;DHT22;6874;52.084;5.090;2023-04-25T08:32:16;7.70;99.90
13606;DHT22;6874;52.084;5.090;2023-04-25T08:34:42;7.70;99.90
13606;DHT22;6874;52.084;5.090;2023-04-25T08:37:09;7.70;99.90
13606;DHT22;6874;52.084;5.090;2023-04-25T08:39:37;7.70;99.90
13606;DHT22;6874;52.084;5.090;2023-04-25T08:42:06;7.80;99.90
13606;DHT22;6874;52.084;5.090;2023-04-25T08:44:35;7.80;99.90
13606;DHT22;6874;52.084;5.090;2023-04-25T08:47:04;7.80;99.90
13606;DHT22;6874;52.084;5.090;2023-04-25T08:49:32;7.80;99.90
13606;DHT22;6874;52.084;5.090;2023-04-25T08:52:00;7.90;99.90
13606;DHT22;6874;52.084;5.090;2023-04-25T08:54:27;7.90;99.90
13606;DHT22;6874;52.084;5.090;2023-04-25T08:56:54;7.90;99.90
13606;DHT22;6874;52.084;5.090;2023-04-25T08:59:21;8.00;99.90
13606;DHT22;6874;52.084;5.090;2023-04-25T09:01:49;8.00;99.90
13606;DHT22;6874;52.084;5.090;2023-04-25T09:04:15;8.00;99.90
13606;DHT22;6874;52.084;5.090;2023-04-25T09:06:40;8.10;99.90
13606;DHT22;6874;52.084;5.090;2023-04-25T09:09:08;8.10;99.90
13606;DHT22;6874;52.084;5.090;2023-04-25T09:11:35;8.10;99.90
13606;DHT22;6874;52.084;5.090;2023-04-25T09:19:32;8.20;99.90
13606;DHT22;6874;52.084;5.090;2023-04-25T09:22:00;8.20;99.90
13606;DHT22;6874;52.084;5.090;2023-04-25T09:24:36;8.30;99.90
13606;DHT22;6874;52.084;5.090;2023-04-25T09:27:10;8.40;99.90
13606;DHT22;6874;52.084;5.090;2023-04-25T09:29:40;8.40;99.90
13606;DHT22;6874;52.084;5.090;2023-04-25T09:34:47;8.60;99.90
13606;DHT22;6874;52.084;5.090;2023-04-25T09:37:24;8.70;99.90
13606;DHT22;6874;52.084;5.090;2023-04-25T09:39:55;8.90;99.90
13606;DHT22;6874;52.084;5.090;2023-04-25T09:42:25;9.00;99.90
13606;DHT22;6874;52.084;5.090;2023-04-25T09:44:53;9.00;99.90
13606;DHT22;6874;52.084;5.090;2023-04-25T09:47:19;9.10;99.90
13606;DHT22;6874;52.084;5.090;2023-04-25T09:49:48;9.10;99.90
13606;DHT22;6874;52.084;5.090;2023-04-25T09:52:22;9.10;99.90
13606;DHT22;6874;52.084;5.090;2023-04-25T09:54:51;9.10;99.90
13606;DHT22;6874;52.084;5.090;2023-04-25T09:57:24;9.10;99.90
13606;DHT22;6874;52.084;5.090;2023-04-25T09:59:54;9.10;99.90
13606;DHT22;6874;52.084;5.090;2023-04-25T10:02:24;9.10;99.90
13606;DHT22;6874;52.084;5.090;2023-04-25T10:04:52;9.00;99.90
13606;DHT22;6874;52.084;5.090;2023-04-25T10:07:21;9.00;99.90
13606;DHT22;6874;52.084;5.090;2023-04-25T10:09:54;9.00;99.90
13606;DHT22;6874;52.084;5.090;2023-04-25T10:12:20;9.00;99.90
13606;DHT22;6874;52.084;5.090;2023-04-25T10:14:46;9.00;99.90
13606;DHT22;6874;52.084;5.090;2023-04-25T10:17:13;9.00;99.90
13606;DHT22;6874;52.084;5.090;2023-04-25T10:19:39;9.00;99.90
13606;DHT22;6874;52.084;5.090;2023-04-25T10:22:13;9.00;99.90
13606;DHT22;6874;52.084;5.090;2023-04-25T10:24:40;9.00;99.90
13606;DHT22;6874;52.084;5.090;2023-04-25T10:27:07;9.10;99.90
13606;DHT22;6874;52.084;5.090;2023-04-25T10:29:33;9.10;99.90
13606;DHT22;6874;52.084;5.090;2023-04-25T10:32:00;9.20;99.90
13606;DHT22;6874;52.084;5.090;2023-04-25T10:34:39;9.20;99.90
13606;DHT22;6874;52.084;5.090;2023-04-25T10:37:09;9.30;99.90
13606;DHT22;6874;52.084;5.090;2023-04-25T10:39:34;9.40;99.90
13606;DHT22;6874;52.084;5.090;2023-04-25T10:42:02;9.40;99.90
13606;DHT22;6874;52.084;5.090;2023-04-25T10:44:38;9.50;99.90
13606;DHT22;6874;52.084;5.090;2023-04-25T10:47:08;9.60;99.90
13606;DHT22;6874;52.084;5.090;2023-04-25T10:52:12;9.80;99.90
13606;DHT22;6874;52.084;5.090;2023-04-25T10:54:42;10.00;99.90
13606;DHT22;6874;52.084;5.090;2023-04-25T10:57:36;10.10;99.90
13606;DHT22;6874;52.084;5.090;2023-04-25T11:00:18;10.30;99.90
13606;DHT22;6874;52.084;5.090;2023-04-25T11:02:57;10.50;99.90
13606;DHT22;6874;52.084;5.090;2023-04-25T11:05:32;10.60;99.90
13606;DHT22;6874;52.084;5.090;2023-04-25T11:07:58;10.70;99.90
13606;DHT22;6874;52.084;5.090;2023-04-25T11:10:28;10.70;99.90
13606;DHT22;6874;52.084;5.090;2023-04-25T11:12:55;10.80;99.90
13606;DHT22;6874;52.084;5.090;2023-04-25T11:15:21;10.70;99.90
13606;DHT22;6874;52.084;5.090;2023-04-25T11:17:46;10.70;99.90
13606;DHT22;6874;52.084;5.090;2023-04-25T11:20:13;10.80;99.90
13606;DHT22;6874;52.084;5.090;2023-04-25T11:22:39;10.80;99.90
13606;DHT22;6874;52.084;5.090;2023-04-25T11:25:10;10.90;99.90
13606;DHT22;6874;52.084;5.090;2023-04-25T11:27:57;10.90;99.90
13606;DHT22;6874;52.084;5.090;2023-04-25T11:30:24;11.00;99.90
13606;DHT22;6874;52.084;5.090;2023-04-25T11:32:50;11.10;99.90
13606;DHT22;6874;52.084;5.090;2023-04-25T11:35:17;11.10;99.90
13606;DHT22;6874;52.084;5.090;2023-04-25T11:37:44;11.20;99.90
13606;DHT22;6874;52.084;5.090;2023-04-25T11:40:10;11.30;99.90
13606;DHT22;6874;52.084;5.090;2023-04-25T11:42:43;11.30;99.90
13606;DHT22;6874;52.084;5.090;2023-04-25T11:45:10;11.30;99.90
13606;DHT22;6874;52.084;5.090;2023-04-25T11:47:36;11.30;99.90
13606;DHT22;6874;52.084;5.090;2023-04-25T11:50:03;11.30;99.90
13606;DHT22;6874;52.084;5.090;2023-04-25T11:52:45;11.30;99.90
13606;DHT22;6874;52.084;5.090;2023-04-25T11:55:19;11.30;99.90
13606;DHT22;6874;52.084;5.090;2023-04-25T11:57:50;11.20;99.90
13606;DHT22;6874;52.084;5.090;2023-04-25T12:00:20;11.20;99.90
13606;DHT22;6874;52.084;5.090;2023-04-25T12:02:47;11.10;99.90
13606;DHT22;6874;52.084;5.090;2023-04-25T12:05:14;11.00;99.90
13606;DHT22;6874;52.084;5.090;2023-04-25T12:07:43;11.00;99.90
13606;DHT22;6874;52.084;5.090;2023-04-25T12:10:12;10.90;99.90
13606;DHT22;6874;52.084;5.090;2023-04-25T12:12:41;10.80;99.90
13606;DHT22;6874;52.084;5.090;2023-04-25T12:15:18;10.70;99.90
13606;DHT22;6874;52.084;5.090;2023-04-25T12:17:48;10.60;99.90
13606;DHT22;6874;52.084;5.090;2023-04-25T12:20:20;10.50;99.90
13606;DHT22;6874;52.084;5.090;2023-04-25T12:22:48;10.50;99.90
13606;DHT22;6874;52.084;5.090;2023-04-25T12:28:14;10.50;99.90
13606;DHT22;6874;52.084;5.090;2023-04-25T12:31:01;10.50;99.90
13606;DHT22;6874;52.084;5.090;2023-04-25T12:35:58;10.60;99.90
13606;DHT22;6874;52.084;5.090;2023-04-25T12:38:28;10.60;99.90
13606;DHT22;6874;52.084;5.090;2023-04-25T12:40:55;10.70;99.90
13606;DHT22;6874;52.084;5.090;2023-04-25T12:43:21;10.70;99.90
13606;DHT22;6874;52.084;5.090;2023-04-25T12:45:54;10.80;99.90
13606;DHT22;6874;52.084;5.090;2023-04-25T12:48:21;10.80;99.90
13606;DHT22;6874;52.084;5.090;2023-04-25T12:50:48;10.80;99.90
13606;DHT22;6874;52.084;5.090;2023-04-25T12:53:15;10.90;99.90
13606;DHT22;6874;52.084;5.090;2023-04-25T12:55:41;10.90;99.90
13606;DHT22;6874;52.084;5.090;2023-04-25T12:58:06;10.90;99.90
13606;DHT22;6874;52.084;5.090;2023-04-25T13:00:32;11.00;99.90
13606;DHT22;6874;52.084;5.090;2023-04-25T13:02:58;11.00;99.90
13606;DHT22;6874;52.084;5.090;2023-04-25T13:05:25;11.00;99.90
13606;DHT22;6874;52.084;5.090;2023-04-25T13:07:50;11.00;99.90
13606;DHT22;6874;52.084;5.090;2023-04-25T13:10:17;11.10;99.90
13606;DHT22;6874;52.084;5.090;2023-04-25T13:12:43;11.10;99.90
13606;DHT22;6874;52.084;5.090;2023-04-25T13:15:09;11.10;99.90
13606;DHT22;6874;52.084;5.090;2023-04-25T13:17:37;11.20;99.90
13606;DHT22;6874;52.084;5.090;2023-04-25T13:20:04;11.20;99.90
13606;DHT22;6874;52.084;5.090;2023-04-25T13:22:34;11.20;99.90
13606;DHT22;6874;52.084;5.090;2023-04-25T13:25:02;11.30;99.90
13606;DHT22;6874;52.084;5.090;2023-04-25T13:27:28;11.40;99.90
13606;DHT22;6874;52.084;5.090;2023-04-25T13:29:54;11.40;99.90
13606;DHT22;6874;52.084;5.090;2023-04-25T13:32:19;11.50;99.90
13606;DHT22;6874;52.084;5.090;2023-04-25T13:34:45;11.50;99.90
13606;DHT22;6874;52.084;5.090;2023-04-25T13:37:11;11.60;99.90
13606;DHT22;6874;52.084;5.090;2023-04-25T13:39:36;11.60;99.90
13606;DHT22;6874;52.084;5.090;2023-04-25T13:42:02;11.60;99.90
13606;DHT22;6874;52.084;5.090;2023-04-25T13:44:28;11.60;99.90
13606;DHT22;6874;52.084;5.090;2023-04-25T13:46:54;11.70;99.90
13606;DHT22;6874;52.084;5.090;2023-04-25T13:49:19;11.70;99.90
13606;DHT22;6874;52.084;5.090;2023-04-25T13:51:45;11.70;99.90
13606;DHT22;6874;52.084;5.090;2023-04-25T13:54:11;11.80;99.90
13606;DHT22;6874;52.084;5.090;2023-04-25T13:56:36;11.90;99.90
13606;DHT22;6874;52.084;5.090;2023-04-25T13:59:02;11.80;99.90
13606;DHT22;6874;52.084;5.090;2023-04-25T14:01:28;11.90;99.90
13606;DHT22;6874;52.084;5.090;2023-04-25T14:03:55;11.80;99.90
13606;DHT22;6874;52.084;5.090;2023-04-25T14:06:21;11.80;99.90
13606;DHT22;6874;52.084;5.090;2023-04-25T14:08:49;11.80;99.90
13606;DHT22;6874;52.084;5.090;2023-04-25T14:11:15;11.80;99.90
13606;DHT22;6874;52.084;5.090;2023-04-25T14:13:43;11.80;99.90
13606;DHT22;6874;52.084;5.090;2023-04-25T14:16:09;11.80;99.90
13606;DHT22;6874;52.084;5.090;2023-04-25T14:18:34;11.80;99.90
13606;DHT22;6874;52.084;5.090;2023-04-25T14:21:00;11.80;99.90
13606;DHT22;6874;52.084;5.090;2023-04-25T14:23:26;11.80;99.90
13606;DHT22;6874;52.084;5.090;2023-04-25T14:25:51;11.80;99.90
13606;DHT22;6874;52.084;5.090;2023-04-25T14:28:17;11.80;99.90
13606;DHT22;6874;52.084;5.090;2023-04-25T14:30:43;11.70;99.90
13606;DHT22;6874;52.084;5.090;2023-04-25T14:33:08;11.70;99.90
13606;DHT22;6874;52.084;5.090;2023-04-25T14:35:35;11.60;99.90
13606;DHT22;6874;52.084;5.090;2023-04-25T14:38:00;11.60;99.90
13606;DHT22;6874;52.084;5.090;2023-04-25T14:40:26;11.50;99.90
13606;DHT22;6874;52.084;5.090;2023-04-25T14:42:52;11.50;99.90
13606;DHT22;6874;52.084;5.090;2023-04-25T14:45:17;11.50;99.90
13606;DHT22;6874;52.084;5.090;2023-04-25T14:47:43;11.50;99.90
13606;DHT22;6874;52.084;5.090;2023-04-25T14:50:09;11.40;99.90
13606;DHT22;6874;52.084;5.090;2023-04-25T14:52:35;11.40;99.90
13606;DHT22;6874;52.084;5.090;2023-04-25T14:55:01;11.40;99.90
13606;DHT22;6874;52.084;5.090;2023-04-25T14:57:32;11.30;99.90
13606;DHT22;6874;52.084;5.090;2023-04-25T14:59:57;11.40;99.90
13606;DHT22;6874;52.084;5.090;2023-04-25T15:02:26;11.40;99.90
13606;DHT22;6874;52.084;5.090;2023-04-25T15:04:53;11.40;99.90
13606;DHT22;6874;52.084;5.090;2023-04-25T15:07:23;11.40;99.90
13606;DHT22;6874;52.084;5.090;2023-04-25T15:09:49;11.40;99.90
13606;DHT22;6874;52.084;5.090;2023-04-25T15:12:14;11.40;99.90
13606;DHT22;6874;52.084;5.090;2023-04-25T15:14:40;11.40;99.90
13606;DHT22;6874;52.084;5.090;2023-04-25T15:17:06;11.40;99.90
13606;DHT22;6874;52.084;5.090;2023-04-25T15:19:31;11.30;99.90
13606;DHT22;6874;52.084;5.090;2023-04-25T15:21:58;11.40;99.90
13606;DHT22;6874;52.084;5.090;2023-04-25T15:24:25;11.30;99.90
13606;DHT22;6874;52.084;5.090;2023-04-25T15:26:51;11.30;99.90
13606;DHT22;6874;52.084;5.090;2023-04-25T15:29:17;11.30;99.90
13606;DHT22;6874;52.084;5.090;2023-04-25T15:31:43;11.30;99.90
13606;DHT22;6874;52.084;5.090;2023-04-25T15:34:08;11.30;99.90
13606;DHT22;6874;52.084;5.090;2023-04-25T15:36:34;11.30;99.90
13606;DHT22;6874;52.084;5.090;2023-04-25T15:38:59;11.30;99.90
13606;DHT22;6874;52.084;5.090;2023-04-25T15:41:25;11.20;99.90
13606;DHT22;6874;52.084;5.090;2023-04-25T15:43:52;11.20;99.90
13606;DHT22;6874;52.084;5.090;2023-04-25T15:46:17;11.20;99.90
13606;DHT22;6874;52.084;5.090;2023-04-25T15:48:43;11.10;99.90
13606;DHT22;6874;52.084;5.090;2023-04-25T15:51:08;11.10;99.90
13606;DHT22;6874;52.084;5.090;2023-04-25T15:53:34;11.10;99.90
13606;DHT22;6874;52.084;5.090;2023-04-25T15:56:00;11.10;99.90
13606;DHT22;6874;52.084;5.090;2023-04-25T15:58:26;11.10;99.90
13606;DHT22;6874;52.084;5.090;2023-04-25T16:00:52;11.00;99.90
13606;DHT22;6874;52.084;5.090;2023-04-25T16:03:17;11.00;99.90
13606;DHT22;6874;52.084;5.090;2023-04-25T16:05:43;11.00;99.90
13606;DHT22;6874;52.084;5.090;2023-04-25T16:08:08;10.90;99.90
13606;DHT22;6874;52.084;5.090;2023-04-25T16:10:34;10.90;99.90